Lakeside Park, Kentucky
Current Conditions -  °F | °C
As of 4:15 PM on Friday 24 Oct 2014 (Local Time) from KI69 Reporting Station
Clear Clear  
Wind Chill: 66°   Ceiling: Unl
Heat Index: 66°   Visibility: 10mi
Dew Point: 37°   Wind: 8mph
Humidity: 35%   Direction: 240°WSW
Pressure: 30.04"   Gusts: NA
Location:  39.0279°N, 84.5635°W
Report Text: KI69 242015Z AUTO 24007KT 10SM CLR 19/03 A3004 RMK AO1
Loading
Personal Weather Stations






























Interactive Weather Map
Tropical Storm Tracking
New forecast layout! Learn more

10-Day Weather Forecast

Advertisements
Track Severe Weather on mobile